Time;durP1;ratioP1;P1;durP2;ratioP2;P2;SDS_P1;SDS_P2;PMS_P1;PMS_P2;Temp;Humidity;BMP_temperature;BMP_pressure;BME280_temperature;BME280_humidity;BME280_pressure;Samples;Min_cycle;Max_cycle;Signal;HPM_P1;HPM_P2
2021/04/09 00:00:25;;;;;;;31.30;27.50;;;23.30;91.20;;;;;;3619220;39;20515;-43
2021/04/09 00:02:52;;;;;;;33.07;28.87;;;23.30;91.20;;;;;;3618603;39;20862;-43
2021/04/09 00:05:21;;;;;;;29.73;26.57;;;23.30;91.20;;;;;;3608148;39;20485;-43
2021/04/09 00:07:49;;;;;;;30.53;27.33;;;23.30;91.20;;;;;;3618284;39;20787;-43
2021/04/09 00:10:16;;;;;;;30.07;26.83;;;23.30;91.20;;;;;;3617484;39;20778;-43
2021/04/09 00:12:43;;;;;;;31.97;28.03;;;23.30;91.20;;;;;;3617411;39;20892;-43
2021/04/09 00:15:12;;;;;;;30.63;27.47;;;23.30;91.20;;;;;;3616141;39;20515;-43
2021/04/09 00:17:40;;;;;;;34.63;28.87;;;23.30;91.20;;;;;;3607262;39;20489;-43
2021/04/09 00:20:07;;;;;;;31.13;26.47;;;23.30;91.10;;;;;;3618532;39;20695;-43
2021/04/09 00:22:33;;;;;;;29.73;26.60;;;23.30;91.10;;;;;;3616853;39;20753;-43
2021/04/09 00:25:00;;;;;;;29.27;26.37;;;23.30;91.10;;;;;;3616657;39;20494;-43
2021/04/09 00:27:27;;;;;;;28.63;25.83;;;23.30;91.10;;;;;;3618867;39;20480;-43
2021/04/09 00:29:53;;;;;;;30.03;26.60;;;23.30;91.10;;;;;;3618934;39;20485;-43
2021/04/09 00:32:20;;;;;;;29.27;25.13;;;23.30;91.10;;;;;;3617001;39;20530;-44
2021/04/09 00:34:48;;;;;;;29.27;26.23;;;23.30;91.10;;;;;;3618813;39;20516;-43
2021/04/09 00:37:14;;;;;;;28.60;25.40;;;23.30;91.10;;;;;;3617555;39;20473;-43
2021/04/09 00:39:41;;;;;;;28.67;25.90;;;23.30;91.10;;;;;;3608126;39;20483;-43
2021/04/09 00:42:07;;;;;;;27.47;24.60;;;23.30;91.10;;;;;;3617096;39;20837;-43
2021/04/09 00:44:34;;;;;;;29.30;25.43;;;23.30;91.10;;;;;;3617098;39;20600;-43
2021/04/09 00:47:01;;;;;;;28.67;25.70;;;23.30;91.10;;;;;;3617121;39;20860;-43
2021/04/09 00:49:27;;;;;;;28.07;25.07;;;23.30;91.10;;;;;;3617478;39;20497;-43
2021/04/09 00:51:55;;;;;;;26.17;23.67;;;23.30;91.00;;;;;;3608349;39;20480;-43
2021/04/09 00:54:22;;;;;;;28.47;25.77;;;23.30;91.10;;;;;;3617550;39;20570;-43
2021/04/09 00:56:49;;;;;;;28.37;25.37;;;23.30;91.00;;;;;;3607994;39;20763;-43
2021/04/09 00:59:15;;;;;;;26.30;23.80;;;23.30;91.00;;;;;;3617520;39;20489;-43
2021/04/09 01:01:42;;;;;;;26.53;24.03;;;23.30;91.00;;;;;;3616642;39;20574;-43
2021/04/09 01:04:09;;;;;;;27.97;25.17;;;23.30;91.00;;;;;;3617586;39;20473;-43
2021/04/09 01:06:35;;;;;;;27.10;24.40;;;23.30;91.00;;;;;;3618334;39;20489;-43
2021/04/09 01:09:03;;;;;;;27.30;24.53;;;23.30;91.00;;;;;;3618378;39;20489;-43
2021/04/09 01:11:30;;;;;;;25.67;23.17;;;23.30;91.00;;;;;;3617024;39;20622;-43
2021/04/09 01:13:57;;;;;;;25.50;23.20;;;23.30;91.00;;;;;;3617108;39;20504;-43
2021/04/09 01:16:37;;;;;;;25.90;23.37;;;23.30;91.00;;;;;;3617377;39;20824;-43
2021/04/09 01:19:23;;;;;;;28.40;25.40;;;23.30;91.00;;;;;;3618033;39;20676;-43
2021/04/09 01:21:55;;;;;;;27.40;24.67;;;23.30;91.00;;;;;;3617324;39;20542;-43
2021/04/09 01:24:54;;;;;;;24.87;22.57;;;23.30;90.90;;;;;;3617245;39;20851;-43
2021/04/09 01:28:02;;;;;;;26.47;23.83;;;23.30;91.00;;;;;;3616670;39;20548;-43
2021/04/09 01:30:56;;;;;;;26.27;23.60;;;23.30;91.00;;;;;;3606182;39;20484;-43
2021/04/09 01:33:26;;;;;;;26.33;23.90;;;23.30;90.90;;;;;;3617685;39;20498;-43
2021/04/09 01:35:57;;;;;;;26.40;23.60;;;23.30;90.90;;;;;;3616905;39;20808;-43
2021/04/09 01:38:26;;;;;;;25.87;23.50;;;23.30;90.90;;;;;;3617169;39;20475;-43
2021/04/09 01:40:56;;;;;;;24.77;22.47;;;23.30;90.90;;;;;;3615306;39;20692;-43
2021/04/09 01:43:24;;;;;;;25.53;23.37;;;23.30;90.90;;;;;;3615842;39;20714;-43
2021/04/09 01:45:52;;;;;;;23.90;21.47;;;23.30;90.90;;;;;;3617900;39;20478;-43
2021/04/09 01:48:19;;;;;;;25.33;22.73;;;23.30;90.90;;;;;;3617671;39;20780;-43
2021/04/09 01:50:48;;;;;;;24.80;22.30;;;23.30;90.90;;;;;;3617349;39;20586;-43
2021/04/09 01:53:17;;;;;;;24.63;22.20;;;23.30;90.90;;;;;;3616728;39;20559;-43
2021/04/09 01:55:47;;;;;;;25.73;23.40;;;23.30;90.90;;;;;;3607384;39;20472;-43
2021/04/09 01:58:16;;;;;;;26.03;23.63;;;23.30;90.90;;;;;;3617053;39;20787;-43
2021/04/09 02:00:43;;;;;;;24.30;21.90;;;23.30;90.80;;;;;;3616922;39;20496;-43
2021/04/09 02:03:11;;;;;;;24.03;21.77;;;23.30;90.80;;;;;;3617337;39;20486;-43
2021/04/09 02:05:39;;;;;;;24.73;22.40;;;23.30;90.80;;;;;;3616970;39;20518;-43
2021/04/09 02:08:11;;;;;;;24.00;21.60;;;23.30;90.80;;;;;;3616009;39;20472;-43
2021/04/09 02:10:38;;;;;;;25.27;22.77;;;23.30;90.80;;;;;;3617019;39;20507;-43
2021/04/09 02:13:07;;;;;;;24.50;22.17;;;23.30;90.80;;;;;;3618698;39;20481;-43
2021/04/09 02:15:35;;;;;;;23.90;21.70;;;23.30;90.80;;;;;;3619224;39;20486;-43
2021/04/09 02:18:02;;;;;;;24.10;21.70;;;23.30;90.80;;;;;;3618708;39;20497;-44
2021/04/09 02:20:30;;;;;;;23.83;21.63;;;23.30;90.80;;;;;;3618187;39;20485;-44
2021/04/09 02:22:56;;;;;;;23.43;21.40;;;23.30;90.80;;;;;;3617819;39;20477;-44
2021/04/09 02:25:23;;;;;;;24.17;21.83;;;23.30;90.80;;;;;;3617588;39;20504;-44
2021/04/09 02:27:51;;;;;;;24.40;22.10;;;23.30;90.80;;;;;;3618240;39;20915;-44
2021/04/09 02:30:21;;;;;;;22.93;21.03;;;23.30;90.80;;;;;;3618492;39;20621;-44
2021/04/09 02:32:47;;;;;;;21.70;19.60;;;23.30;90.80;;;;;;3618540;39;20556;-44
2021/04/09 02:35:15;;;;;;;24.63;22.20;;;23.30;90.70;;;;;;3618608;39;20903;-44
2021/04/09 02:37:43;;;;;;;23.57;21.50;;;23.30;90.80;;;;;;3618125;39;20484;-44
2021/04/09 02:40:14;;;;;;;22.97;21.10;;;23.30;90.70;;;;;;3625595;39;20496;-43
2021/04/09 02:42:46;;;;;;;23.10;21.27;;;23.30;90.80;;;;;;3628202;39;20491;-43
2021/04/09 02:45:13;;;;;;;23.43;21.10;;;23.30;90.90;;;;;;3626749;39;20605;-43
2021/04/09 02:47:43;;;;;;;22.33;20.23;;;23.30;90.70;;;;;;3627536;39;20475;-43
2021/04/09 02:50:14;;;;;;;23.00;21.10;;;23.30;90.70;;;;;;3627798;39;20516;-43
2021/04/09 02:52:46;;;;;;;23.10;21.10;;;23.30;90.70;;;;;;3627525;39;20836;-44
2021/04/09 02:55:17;;;;;;;22.80;20.80;;;23.30;90.70;;;;;;3627470;39;20487;-44
2021/04/09 02:57:47;;;;;;;22.93;20.93;;;23.30;90.70;;;;;;3618841;39;20484;-43
2021/04/09 03:00:16;;;;;;;23.07;21.17;;;23.30;90.70;;;;;;3628997;39;20575;-43
2021/04/09 03:02:43;;;;;;;24.03;21.97;;;23.30;90.70;;;;;;3627622;39;20477;-43
2021/04/09 03:05:12;;;;;;;21.97;20.00;;;23.30;90.70;;;;;;3625683;39;20484;-43
2021/04/09 03:07:40;;;;;;;22.27;20.47;;;23.30;90.70;;;;;;3627433;39;20592;-44
2021/04/09 03:10:09;;;;;;;23.70;21.70;;;23.30;90.70;;;;;;3626454;39;20487;-44
2021/04/09 03:12:36;;;;;;;24.10;22.00;;;23.30;90.70;;;;;;3628125;39;20488;-43
2021/04/09 03:15:05;;;;;;;22.40;20.50;;;23.30;90.60;;;;;;3619833;39;20479;-43
2021/04/09 03:17:37;;;;;;;22.90;20.70;;;23.30;90.60;;;;;;3629057;39;20528;-43
2021/04/09 03:20:05;;;;;;;21.30;19.50;;;23.30;90.60;;;;;;3626717;39;20485;-43
2021/04/09 03:22:31;;;;;;;23.40;21.27;;;23.30;90.60;;;;;;3627094;39;20528;-44
2021/04/09 03:24:58;;;;;;;22.70;20.90;;;23.30;90.60;;;;;;3626422;39;20491;-44
2021/04/09 03:27:25;;;;;;;22.87;20.87;;;23.30;90.60;;;;;;3626410;39;20479;-44
2021/04/09 03:29:51;;;;;;;21.60;19.70;;;23.30;90.60;;;;;;3627249;39;20487;-44
2021/04/09 03:32:19;;;;;;;21.10;19.50;;;23.30;90.60;;;;;;3626876;39;20572;-44
2021/04/09 03:34:45;;;;;;;21.17;19.47;;;23.30;90.60;;;;;;3629126;39;20513;-44
2021/04/09 03:37:12;;;;;;;22.93;20.93;;;23.30;90.50;;;;;;3627686;39;20509;-44
2021/04/09 03:39:39;;;;;;;21.23;19.63;;;23.30;90.50;;;;;;3622594;39;20571;-44
2021/04/09 03:42:06;;;;;;;21.73;20.03;;;23.30;90.50;;;;;;3616930;39;20491;-44
2021/04/09 03:44:33;;;;;;;21.33;19.83;;;23.30;90.50;;;;;;3616916;39;20644;-44
2021/04/09 03:47:00;;;;;;;22.17;20.27;;;23.40;90.60;;;;;;3616662;39;20478;-44
2021/04/09 03:49:27;;;;;;;21.37;19.77;;;23.40;90.60;;;;;;3616107;39;20486;-44
2021/04/09 03:51:54;;;;;;;21.90;20.17;;;23.40;90.50;;;;;;3615296;39;20469;-44
2021/04/09 03:54:21;;;;;;;22.53;20.53;;;23.40;90.50;;;;;;3613407;39;21039;-44
2021/04/09 03:56:48;;;;;;;21.40;19.70;;;23.40;90.50;;;;;;3612582;39;20488;-44
2021/04/09 03:59:14;;;;;;;23.83;21.67;;;23.40;90.50;;;;;;3615466;39;20856;-43
2021/04/09 04:01:41;;;;;;;21.50;19.97;;;23.40;90.40;;;;;;3613131;39;20487;-43
2021/04/09 04:04:07;;;;;;;22.27;20.47;;;23.50;90.50;;;;;;3614015;39;20480;-43
2021/04/09 04:06:35;;;;;;;21.70;19.80;;;23.50;90.40;;;;;;3615840;39;20685;-43
2021/04/09 04:09:02;;;;;;;21.00;19.30;;;23.50;90.40;;;;;;3616684;39;20520;-43
2021/04/09 04:11:29;;;;;;;21.37;19.57;;;23.50;90.40;;;;;;3614742;39;20789;-43
2021/04/09 04:13:55;;;;;;;19.93;18.53;;;23.50;90.40;;;;;;3615948;39;20488;-44
2021/04/09 04:16:22;;;;;;;20.87;19.37;;;23.50;90.30;;;;;;3615494;39;20733;-44
2021/04/09 04:18:49;;;;;;;20.20;18.63;;;23.50;90.30;;;;;;3614044;39;20826;-44
2021/04/09 04:21:16;;;;;;;21.23;19.53;;;23.50;90.30;;;;;;3611000;39;20492;-44
2021/04/09 04:23:44;;;;;;;21.80;19.80;;;23.50;90.30;;;;;;3615778;39;20470;-44
2021/04/09 04:26:10;;;;;;;21.83;20.23;;;23.60;90.30;;;;;;3614762;39;20847;-44
2021/04/09 04:28:37;;;;;;;21.63;20.20;;;23.60;90.30;;;;;;3604496;39;20541;-44
2021/04/09 04:31:04;;;;;;;21.60;19.97;;;23.60;90.20;;;;;;3614905;39;20729;-44
2021/04/09 04:33:30;;;;;;;21.40;19.70;;;23.60;90.20;;;;;;3615393;39;20479;-44
2021/04/09 04:35:57;;;;;;;20.77;19.33;;;23.60;90.20;;;;;;3611411;39;20738;-44
2021/04/09 04:38:24;;;;;;;22.07;20.40;;;23.60;90.10;;;;;;3613642;39;20476;-44
2021/04/09 04:40:52;;;;;;;21.43;19.80;;;23.70;90.20;;;;;;3623338;39;20481;-44
2021/04/09 04:43:19;;;;;;;22.20;20.33;;;23.60;90.10;;;;;;3623812;39;20476;-44
2021/04/09 04:45:46;;;;;;;20.00;18.60;;;23.70;90.10;;;;;;3623654;39;20703;-44
2021/04/09 04:48:12;;;;;;;20.80;19.20;;;23.70;90.10;;;;;;3624317;39;20477;-44
2021/04/09 04:50:39;;;;;;;20.80;19.30;;;23.70;90.10;;;;;;3623906;39;20485;-43
2021/04/09 04:53:06;;;;;;;20.60;18.80;;;23.80;90.10;;;;;;3624186;39;20488;-43
2021/04/09 04:55:33;;;;;;;20.00;18.60;;;23.80;90.00;;;;;;3622704;39;20480;-43
2021/04/09 04:58:00;;;;;;;21.37;19.77;;;23.80;90.00;;;;;;3621484;39;20492;-43
2021/04/09 05:00:27;;;;;;;20.93;19.23;;;23.80;90.00;;;;;;3619630;39;20667;-43
2021/04/09 05:02:54;;;;;;;20.83;19.37;;;23.80;89.90;;;;;;3619535;39;20537;-43
2021/04/09 05:05:21;;;;;;;19.90;18.50;;;23.80;89.90;;;;;;3621832;39;20515;-43
2021/04/09 05:07:48;;;;;;;20.40;18.80;;;23.90;89.90;;;;;;3619461;39;20479;-43
2021/04/09 05:10:14;;;;;;;19.97;18.43;;;23.90;89.90;;;;;;3619951;39;20583;-43
2021/04/09 05:12:41;;;;;;;19.20;17.70;;;23.90;89.80;;;;;;3619362;39;20484;-43
2021/04/09 05:15:10;;;;;;;21.17;19.67;;;23.90;89.80;;;;;;3618409;39;20690;-43
2021/04/09 05:17:36;;;;;;;19.33;17.73;;;23.90;90.10;;;;;;3620151;39;20481;-43
2021/04/09 05:20:04;;;;;;;18.20;16.90;;;23.90;89.70;;;;;;3619457;39;20856;-43
2021/04/09 05:24:24;;;;;;;18.70;17.40;;;23.90;89.70;;;;;;3618157;39;20810;-34
2021/04/09 05:26:51;;;;;;;18.40;17.30;;;24.00;89.60;;;;;;3615767;39;20485;-35
2021/04/09 05:29:17;;;;;;;18.33;16.87;;;23.90;89.50;;;;;;3614763;39;20545;-34
2021/04/09 05:31:44;;;;;;;19.60;18.00;;;24.00;89.60;;;;;;3616061;39;20491;-34
2021/04/09 05:34:10;;;;;;;19.13;17.83;;;23.90;89.50;;;;;;3615475;39;20561;-34
2021/04/09 05:36:37;;;;;;;18.20;17.00;;;24.00;89.50;;;;;;3613705;39;20759;-35
2021/04/09 05:39:03;;;;;;;19.47;17.97;;;24.00;89.40;;;;;;3614420;39;20931;-34
2021/04/09 05:41:31;;;;;;;18.47;17.27;;;24.00;89.30;;;;;;3615201;39;20491;-34
2021/04/09 05:43:57;;;;;;;18.60;17.30;;;24.00;90.00;;;;;;3614868;39;20488;-35
2021/04/09 05:46:24;;;;;;;18.80;17.50;;;24.10;89.30;;;;;;3612141;39;20889;-34
2021/04/09 05:48:51;;;;;;;17.93;16.63;;;24.10;89.30;;;;;;3612225;39;20529;-34
2021/04/09 05:51:17;;;;;;;18.03;16.70;;;24.00;89.10;;;;;;3612135;39;20515;-35
2021/04/09 05:53:45;;;;;;;17.90;16.70;;;24.10;89.20;;;;;;3613678;39;20511;-34
2021/04/09 05:56:12;;;;;;;17.63;16.53;;;24.10;89.20;;;;;;3611571;39;20581;-34
2021/04/09 05:58:40;;;;;;;18.10;16.80;;;24.10;89.20;;;;;;3610810;39;20612;-34
2021/04/09 06:01:06;;;;;;;18.37;17.00;;;24.10;89.10;;;;;;3609906;39;20506;-34
2021/04/09 06:03:33;;;;;;;17.90;16.50;;;24.10;89.10;;;;;;3610930;39;20795;-34
2021/04/09 06:05:59;;;;;;;17.80;16.50;;;24.10;89.00;;;;;;3606747;39;20911;-34
2021/04/09 06:08:26;;;;;;;18.17;16.70;;;24.10;89.00;;;;;;3606461;39;20492;-34
2021/04/09 06:10:52;;;;;;;18.93;17.53;;;24.20;89.10;;;;;;3610657;39;20884;-34
2021/04/09 06:13:19;;;;;;;18.53;17.20;;;24.20;89.00;;;;;;3610268;39;20493;-34
2021/04/09 06:15:47;;;;;;;17.97;16.50;;;24.10;89.20;;;;;;3607103;39;20576;-34
2021/04/09 06:18:13;;;;;;;17.80;16.40;;;24.20;89.00;;;;;;3606999;39;20476;-35
2021/04/09 06:20:40;;;;;;;18.73;17.40;;;24.10;88.80;;;;;;3607879;39;20491;-35
2021/04/09 06:23:06;;;;;;;17.97;16.77;;;24.10;88.80;;;;;;3604324;39;20678;-34
2021/04/09 06:25:33;;;;;;;18.03;16.80;;;24.20;88.90;;;;;;3608052;39;20819;-34
2021/04/09 06:27:59;;;;;;;18.40;17.07;;;24.20;88.90;;;;;;3608536;39;20764;-34
2021/04/09 06:30:26;;;;;;;17.13;16.03;;;24.20;88.80;;;;;;3606197;39;20930;-35
2021/04/09 06:32:54;;;;;;;18.17;16.90;;;24.20;88.80;;;;;;3607178;39;20563;-34
2021/04/09 06:35:20;;;;;;;17.77;16.50;;;24.20;88.80;;;;;;3601499;39;20859;-34
2021/04/09 06:37:48;;;;;;;17.43;16.33;;;24.20;88.70;;;;;;3598022;39;20511;-35
2021/04/09 06:40:15;;;;;;;18.53;17.10;;;24.20;88.70;;;;;;3599378;39;20505;-34
2021/04/09 06:42:42;;;;;;;17.63;16.47;;;24.20;88.70;;;;;;3597755;39;20851;-35
2021/04/09 06:45:09;;;;;;;16.43;15.23;;;24.20;88.70;;;;;;3600942;39;20604;-34
2021/04/09 06:47:37;;;;;;;18.03;16.83;;;24.20;88.70;;;;;;3600609;39;20866;-35
2021/04/09 06:50:06;;;;;;;17.90;16.70;;;24.20;88.70;;;;;;3599406;39;20677;-33
2021/04/09 06:52:34;;;;;;;18.03;16.73;;;24.20;88.70;;;;;;3599285;39;20931;-34
2021/04/09 06:55:01;;;;;;;17.47;16.10;;;24.20;88.80;;;;;;3597794;39;20554;-35
2021/04/09 06:57:29;;;;;;;17.87;16.57;;;24.20;88.80;;;;;;3597453;39;20485;-34
2021/04/09 06:59:58;;;;;;;17.50;16.30;;;24.20;88.80;;;;;;3599187;39;21021;-35
2021/04/09 07:02:25;;;;;;;17.13;15.90;;;24.20;88.70;;;;;;3597727;39;20491;-34
2021/04/09 07:04:52;;;;;;;17.50;16.30;;;24.20;88.80;;;;;;3598969;39;20489;-34
2021/04/09 07:07:19;;;;;;;17.50;16.20;;;24.20;88.70;;;;;;3597610;39;20773;-34
2021/04/09 07:09:46;;;;;;;16.90;15.53;;;24.20;88.80;;;;;;3597054;39;20805;-34
2021/04/09 07:12:23;;;;;;;16.07;14.87;;;24.20;88.80;;;;;;3598632;39;20728;-34
2021/04/09 07:14:51;;;;;;;17.10;16.00;;;24.20;88.80;;;;;;3599377;39;21049;-34
2021/04/09 07:17:29;;;;;;;16.60;15.50;;;24.20;88.80;;;;;;3597748;39;20479;-35
2021/04/09 07:20:13;;;;;;;15.80;14.80;;;24.20;88.80;;;;;;3597761;39;20508;-34
2021/04/09 07:22:42;;;;;;;16.20;15.10;;;24.20;88.90;;;;;;3597780;39;20596;-34
2021/04/09 07:25:12;;;;;;;15.83;14.87;;;24.20;89.00;;;;;;3599733;39;20899;-34
2021/04/09 07:27:39;;;;;;;17.83;16.40;;;24.20;89.00;;;;;;3599062;39;20479;-35
2021/04/09 07:30:08;;;;;;;16.83;15.73;;;24.10;88.90;;;;;;3598452;39;20487;-34
2021/04/09 07:32:35;;;;;;;17.50;16.10;;;24.10;88.90;;;;;;3598481;39;20781;-34
2021/04/09 07:35:06;;;;;;;16.33;15.13;;;24.10;89.00;;;;;;3592199;39;20719;-34
2021/04/09 07:37:46;;;;;;;16.27;15.10;;;24.10;89.00;;;;;;3596915;39;20482;-34
2021/04/09 07:40:16;;;;;;;17.00;15.90;;;24.10;89.10;;;;;;3597492;39;20469;-35
2021/04/09 07:42:43;;;;;;;17.10;15.90;;;24.10;89.10;;;;;;3595878;39;20880;-35
2021/04/09 07:45:12;;;;;;;18.57;17.00;;;24.10;89.20;;;;;;3595367;39;20594;-34
2021/04/09 07:47:39;;;;;;;17.03;15.80;;;24.10;89.30;;;;;;3596561;39;20898;-34
2021/04/09 07:50:10;;;;;;;15.67;14.67;;;24.00;89.20;;;;;;3596813;39;20497;-35
2021/04/09 07:52:45;;;;;;;17.37;16.00;;;24.10;89.40;;;;;;3595183;39;20532;-35
2021/04/09 07:55:20;;;;;;;17.67;16.47;;;24.10;89.30;;;;;;3595266;39;20850;-34
2021/04/09 07:57:47;;;;;;;16.10;15.10;;;24.10;89.40;;;;;;3596057;39;21066;-34
2021/04/09 08:00:22;;;;;;;16.40;15.20;;;24.10;89.30;;;;;;3594966;39;20997;-34
2021/04/09 08:02:51;;;;;;;17.03;15.77;;;24.10;89.50;;;;;;3598399;39;20500;-34
2021/04/09 08:05:20;;;;;;;17.20;16.00;;;24.10;89.70;;;;;;3595586;39;20937;-34
2021/04/09 08:07:47;;;;;;;17.73;16.30;;;24.10;90.00;;;;;;3593772;39;20879;-35
2021/04/09 08:10:15;;;;;;;17.87;16.30;;;24.00;90.00;;;;;;3596148;39;20806;-35
2021/04/09 08:12:44;;;;;;;19.57;17.57;;;24.10;90.20;;;;;;3596253;39;20494;-34
2021/04/09 08:15:17;;;;;;;18.20;16.53;;;24.00;90.10;;;;;;3595276;39;20755;-35
2021/04/09 08:17:44;;;;;;;18.40;16.90;;;24.00;90.10;;;;;;3598244;39;20486;-34
2021/04/09 08:20:14;;;;;;;17.13;15.80;;;24.00;90.10;;;;;;3601191;39;20472;-35
2021/04/09 08:22:43;;;;;;;19.30;17.73;;;24.00;90.20;;;;;;3596390;39;20490;-35
2021/04/09 08:25:11;;;;;;;16.80;15.23;;;24.00;90.10;;;;;;3601801;39;20499;-35
2021/04/09 08:27:41;;;;;;;18.17;16.60;;;24.00;90.10;;;;;;3599921;39;21061;-35
2021/04/09 08:30:11;;;;;;;19.00;17.20;;;24.00;90.10;;;;;;3601870;39;20488;-35
2021/04/09 08:32:38;;;;;;;19.30;17.90;;;24.00;90.10;;;;;;3600181;39;21342;-35
2021/04/09 08:35:08;;;;;;;18.33;16.57;;;24.00;90.20;;;;;;3601515;39;21132;-35
2021/04/09 08:37:36;;;;;;;17.93;16.43;;;24.00;90.20;;;;;;3600955;39;20563;-35
2021/04/09 08:40:05;;;;;;;18.17;16.60;;;24.00;90.20;;;;;;3600090;39;20488;-35
2021/04/09 08:42:34;;;;;;;17.40;16.10;;;24.00;90.20;;;;;;3598356;39;20503;-35
2021/04/09 08:45:03;;;;;;;17.23;15.73;;;24.00;90.30;;;;;;3597965;39;20503;-35
2021/04/09 08:47:31;;;;;;;18.60;16.83;;;23.90;90.30;;;;;;3601827;39;20491;-36
2021/04/09 08:49:58;;;;;;;17.60;16.03;;;24.00;90.30;;;;;;3601012;39;20473;-36
2021/04/09 08:52:26;;;;;;;18.70;16.80;;;24.00;90.50;;;;;;3600998;39;20963;-36
2021/04/09 08:54:55;;;;;;;18.13;16.73;;;24.00;90.70;;;;;;3601729;39;20482;-36
2021/04/09 08:57:29;;;;;;;21.87;16.77;;;24.10;90.70;;;;;;3581790;39;20512;-35
2021/04/09 09:00:13;;;;;;;17.30;15.87;;;24.00;90.70;;;;;;3595870;39;20479;-38
2021/04/09 09:02:48;;;;;;;17.87;16.33;;;24.10;90.70;;;;;;3589490;39;20537;-36
2021/04/09 09:05:19;;;;;;;17.80;16.20;;;24.10;90.70;;;;;;3598080;39;20492;-36
2021/04/09 09:08:07;;;;;;;17.40;16.00;;;24.10;90.80;;;;;;3600464;39;20566;-36
2021/04/09 09:10:57;;;;;;;17.80;16.30;;;24.10;90.90;;;;;;3606875;39;20632;-36
2021/04/09 09:13:30;;;;;;;18.70;16.80;;;24.10;90.90;;;;;;3610004;39;20768;-35
2021/04/09 09:16:01;;;;;;;17.97;16.40;;;24.00;90.70;;;;;;3602545;39;20589;-36
2021/04/09 09:18:54;;;;;;;17.53;15.77;;;24.00;90.70;;;;;;3600940;39;20481;-36
2021/04/09 09:21:36;;;;;;;16.27;15.10;;;24.00;90.80;;;;;;3603332;39;20474;-35
2021/04/09 09:24:06;;;;;;;17.83;16.13;;;24.00;91.10;;;;;;3590974;39;21242;-39
2021/04/09 09:26:34;;;;;;;18.73;17.00;;;24.00;90.80;;;;;;3600561;39;20514;-38
2021/04/09 09:29:16;;;;;;;16.87;15.27;;;24.00;90.80;;;;;;3598680;39;20485;-39
2021/04/09 09:31:54;;;;;;;16.60;15.10;;;24.00;90.80;;;;;;3597230;39;20489;-38
2021/04/09 09:34:39;;;;;;;18.57;16.97;;;23.90;90.70;;;;;;3600410;39;20491;-36
2021/04/09 09:37:08;;;;;;;16.37;15.07;;;23.90;90.70;;;;;;3597770;39;20481;-38
2021/04/09 09:39:36;;;;;;;17.70;16.20;;;23.90;90.70;;;;;;3599706;39;20492;-39
2021/04/09 09:42:04;;;;;;;16.90;15.47;;;23.90;90.70;;;;;;3601065;39;20491;-39
2021/04/09 09:44:48;;;;;;;16.80;15.57;;;23.80;90.70;;;;;;3598344;39;20505;-38
2021/04/09 09:47:23;;;;;;;16.40;14.90;;;23.80;90.70;;;;;;3608659;39;20887;-39
2021/04/09 09:50:15;;;;;;;15.77;14.67;;;23.80;90.70;;;;;;3609809;39;20470;-38
2021/04/09 09:52:43;;;;;;;16.47;15.30;;;23.80;90.70;;;;;;3610983;39;21161;-38
2021/04/09 09:55:12;;;;;;;16.80;15.00;;;23.80;90.60;;;;;;3611008;39;20518;-39
2021/04/09 09:57:43;;;;;;;15.77;14.43;;;23.80;90.70;;;;;;3608825;39;20487;-38
2021/04/09 10:00:11;;;;;;;16.97;15.53;;;23.80;90.70;;;;;;3611461;39;20488;-38
2021/04/09 10:02:38;;;;;;;15.93;14.67;;;23.80;90.60;;;;;;3600107;39;20817;-39
2021/04/09 10:05:09;;;;;;;16.30;15.10;;;23.80;90.60;;;;;;3608343;39;20469;-38
2021/04/09 10:07:37;;;;;;;15.93;14.63;;;23.80;90.70;;;;;;3610539;39;20542;-37
2021/04/09 10:10:06;;;;;;;15.67;14.23;;;23.70;90.60;;;;;;3609822;39;20499;-38
2021/04/09 10:12:32;;;;;;;15.97;14.87;;;23.70;90.60;;;;;;3610626;39;20808;-38
2021/04/09 10:14:59;;;;;;;15.50;14.40;;;23.70;90.60;;;;;;3608180;39;20797;-38
2021/04/09 10:17:25;;;;;;;16.20;15.00;;;23.70;90.60;;;;;;3607202;39;20925;-38
2021/04/09 10:20:00;;;;;;;16.20;15.00;;;23.70;90.60;;;;;;3607541;39;20759;-38
2021/04/09 10:22:28;;;;;;;18.90;16.90;;;23.70;90.60;;;;;;3609928;39;20832;-38
2021/04/09 10:24:55;;;;;;;44.70;32.67;;;23.70;90.60;;;;;;3595301;39;20546;-33
2021/04/09 10:27:22;;;;;;;52.10;35.77;;;23.70;90.70;;;;;;3600898;39;20495;-34
2021/04/09 10:29:48;;;;;;;41.70;33.47;;;23.70;90.90;;;;;;3610954;39;21440;-34
2021/04/09 10:32:17;;;;;;;57.13;32.60;;;23.70;91.10;;;;;;3611361;39;20471;-41
2021/04/09 10:34:46;;;;;;;45.50;31.87;;;23.70;91.20;;;;;;3605114;39;20577;-41
2021/04/09 10:37:23;;;;;;;40.15;31.08;;;23.70;91.30;;;;;;3596291;39;20654;-42
2021/04/09 10:39:50;;;;;;;41.93;29.60;;;23.80;91.80;;;;;;3599779;39;20250;-42
2021/04/09 10:42:18;;;;;;;43.67;29.80;;;23.80;91.70;;;;;;3600543;39;20620;-41
2021/04/09 10:44:44;;;;;;;41.77;29.60;;;23.80;91.50;;;;;;3598826;39;20794;-41
2021/04/09 10:47:11;;;;;;;37.77;30.13;;;23.80;91.60;;;;;;3606178;39;20674;-42
2021/04/09 10:49:39;;;;;;;41.37;28.80;;;23.80;91.60;;;;;;3609083;39;20682;-41
2021/04/09 10:52:08;;;;;;;40.10;28.53;;;23.80;91.60;;;;;;3606861;39;20487;-41
2021/04/09 10:54:37;;;;;;;39.37;26.97;;;23.80;91.70;;;;;;3613024;39;20517;-41
2021/04/09 10:57:06;;;;;;;41.67;28.23;;;23.80;91.60;;;;;;3614595;39;20468;-41
2021/04/09 10:59:35;;;;;;;30.03;26.70;;;23.80;91.80;;;;;;3614555;39;20950;-43
2021/04/09 11:02:02;;;;;;;33.17;25.37;;;23.90;91.90;;;;;;3605909;39;20526;-42
2021/04/09 11:04:31;;;;;;;27.87;23.70;;;23.90;91.90;;;;;;3603924;39;20578;-42
2021/04/09 11:06:59;;;;;;;34.03;23.47;;;23.90;91.80;;;;;;3603811;39;20497;-42
2021/04/09 11:09:38;;;;;;;32.90;25.10;;;23.90;92.00;;;;;;3603299;39;20787;-43
2021/04/09 11:12:22;;;;;;;27.83;23.33;;;23.90;91.90;;;;;;3604323;39;20492;-42
2021/04/09 11:14:50;;;;;;;34.03;24.13;;;23.80;92.00;;;;;;3609806;39;21266;-43
2021/04/09 11:17:24;;;;;;;28.73;24.73;;;23.80;92.10;;;;;;3609780;39;20986;-43
2021/04/09 11:19:55;;;;;;;25.90;22.77;;;23.80;92.20;;;;;;3610102;39;20506;-42
2021/04/09 11:22:22;;;;;;;34.97;26.00;;;23.80;92.40;;;;;;3607593;39;20486;-42
2021/04/09 11:25:00;;;;;;;25.87;23.37;;;23.80;92.50;;;;;;3611455;39;21017;-42
2021/04/09 11:27:30;;;;;;;30.10;24.93;;;23.80;92.70;;;;;;3615115;39;20698;-42
2021/04/09 11:30:08;;;;;;;26.47;23.50;;;23.80;92.70;;;;;;3616650;39;20621;-42
2021/04/09 11:32:40;;;;;;;25.40;22.70;;;23.80;92.50;;;;;;3615400;39;20481;-42
2021/04/09 11:35:09;;;;;;;24.47;22.07;;;23.80;92.50;;;;;;3615824;39;20480;-42
2021/04/09 11:37:46;;;;;;;22.80;20.57;;;23.70;92.40;;;;;;3616544;39;20490;-42
2021/04/09 11:40:14;;;;;;;25.43;21.03;;;23.70;92.30;;;;;;3616100;39;20499;-42
2021/04/09 11:42:45;;;;;;;25.10;21.03;;;23.70;92.30;;;;;;3613726;39;21092;-42
2021/04/09 11:45:13;;;;;;;22.73;20.00;;;23.60;92.20;;;;;;3595429;39;20498;-42
2021/04/09 11:47:42;;;;;;;23.43;20.93;;;23.70;92.30;;;;;;3605544;39;20911;-42
2021/04/09 11:50:15;;;;;;;24.47;21.97;;;23.60;92.20;;;;;;3606163;39;20484;-42
2021/04/09 11:53:01;;;;;;;24.27;20.90;;;23.60;92.30;;;;;;3606864;39;20484;-42
2021/04/09 11:55:30;;;;;;;22.70;20.60;;;23.60;92.30;;;;;;3604165;39;20469;-42
2021/04/09 11:57:58;;;;;;;22.63;20.37;;;23.60;92.30;;;;;;3605506;39;20473;-42
2021/04/09 12:00:28;;;;;;;22.93;20.63;;;23.60;92.20;;;;;;3605428;39;20666;-42
2021/04/09 12:02:58;;;;;;;21.97;19.73;;;23.60;92.20;;;;;;3609071;39;20492;-42
2021/04/09 12:05:27;;;;;;;20.10;18.30;;;23.60;92.30;;;;;;3606697;39;20515;-42
2021/04/09 12:07:55;;;;;;;21.57;19.57;;;23.50;92.20;;;;;;3604326;39;20515;-42
2021/04/09 12:10:25;;;;;;;20.53;18.80;;;23.50;92.20;;;;;;3603538;39;20484;-42
2021/04/09 12:12:53;;;;;;;20.77;18.60;;;23.50;92.20;;;;;;3603827;39;21265;-42
2021/04/09 12:15:23;;;;;;;20.37;18.47;;;23.50;92.20;;;;;;3606616;39;20492;-42
2021/04/09 12:17:50;;;;;;;20.00;18.20;;;23.50;92.20;;;;;;3606524;39;20488;-42
2021/04/09 12:20:19;;;;;;;19.20;17.40;;;23.50;92.20;;;;;;3606063;39;20600;-42
2021/04/09 12:22:48;;;;;;;18.67;17.03;;;23.50;92.20;;;;;;3607010;39;20481;-42
2021/04/09 12:25:19;;;;;;;18.27;16.73;;;23.50;92.20;;;;;;3598049;39;20499;-42
2021/04/09 12:27:48;;;;;;;17.20;15.70;;;23.50;92.20;;;;;;3607009;39;20874;-42
2021/04/09 12:30:16;;;;;;;17.97;16.27;;;23.50;92.30;;;;;;3609298;39;20481;-42
2021/04/09 12:32:45;;;;;;;18.00;16.40;;;23.50;92.30;;;;;;3606274;39;20473;-42
2021/04/09 12:35:13;;;;;;;18.50;16.90;;;23.50;92.30;;;;;;3607595;39;20489;-42
2021/04/09 12:37:41;;;;;;;17.60;16.00;;;23.50;92.60;;;;;;3601244;39;21461;-42
2021/04/09 12:40:09;;;;;;;18.23;16.53;;;23.50;92.30;;;;;;3609442;39;20480;-42